Time;durP1;ratioP1;P1;durP2;ratioP2;P2;SDS_P1;SDS_P2;PMS_P1;PMS_P2;Temp;Humidity;BMP_temperature;BMP_pressure;BME280_temperature;BME280_humidity;BME280_pressure;Samples;Min_cycle;Max_cycle;Signal;HPM_P1;HPM_P2
2022/11/11 00:01:59;;;;;;;11.95;4.10;;;;;;;1.22;100.00;96919.44;4997855;28;20062;-70
2022/11/11 00:04:25;;;;;;;8.02;4.13;;;;;;;1.14;100.00;96920.34;4986722;28;20420;-70
2022/11/11 00:06:52;;;;;;;11.77;4.40;;;;;;;1.16;100.00;96915.78;4988818;28;20042;-70
2022/11/11 00:09:18;;;;;;;9.18;3.80;;;;;;;1.14;100.00;96907.38;4976392;28;20039;-70
2022/11/11 00:11:43;;;;;;;8.70;4.00;;;;;;;1.13;100.00;96905.75;4992144;28;20519;-70
2022/11/11 00:14:09;;;;;;;10.82;4.13;;;;;;;1.09;100.00;96909.66;4989389;28;20055;-69
2022/11/11 00:25:06;;;;;;;7.97;3.70;;;;;;;1.03;100.00;96900.00;4974584;28;20060;-70
2022/11/11 00:27:33;;;;;;;5.78;3.28;;;;;;;1.04;100.00;96909.41;4985356;28;20038;-70
2022/11/11 00:29:58;;;;;;;7.95;4.00;;;;;;;0.99;100.00;96903.91;4991164;28;20062;-71
2022/11/11 00:32:29;;;;;;;8.02;3.70;;;;;;;0.91;100.00;96909.19;4976511;28;20129;-70
2022/11/11 00:37:42;;;;;;;8.35;3.05;;;;;;;0.73;100.00;96907.66;5003134;28;20073;-70
2022/11/11 00:40:09;;;;;;;7.43;3.30;;;;;;;0.78;100.00;96907.97;4995506;28;20488;-70
2022/11/11 00:42:35;;;;;;;7.45;3.22;;;;;;;0.79;100.00;96896.63;4976253;28;20062;-69
2022/11/11 00:45:00;;;;;;;5.70;3.25;;;;;;;0.76;100.00;96899.56;4993863;28;20118;-70
2022/11/11 00:52:57;;;;;;;6.05;3.17;;;;;;;0.73;100.00;96896.50;4991464;28;20049;-70
2022/11/11 00:55:23;;;;;;;6.28;3.35;;;;;;;0.68;100.00;96890.06;4975356;28;20064;-69
2022/11/11 00:57:48;;;;;;;8.02;3.25;;;;;;;0.65;100.00;96897.38;4991323;28;20049;-71
2022/11/11 01:00:14;;;;;;;6.07;3.42;;;;;;;0.64;100.00;96895.75;4973617;28;20496;-71
2022/11/11 01:02:40;;;;;;;5.93;2.95;;;;;;;0.61;100.00;96890.94;4991175;28;20051;-69
2022/11/11 01:05:05;;;;;;;8.05;3.17;;;;;;;0.54;100.00;96890.78;4996399;28;20070;-70
2022/11/11 01:07:31;;;;;;;5.35;2.80;;;;;;;0.46;100.00;96878.72;4994525;28;20474;-70
2022/11/11 01:09:57;;;;;;;5.93;3.20;;;;;;;0.41;100.00;96880.19;4977078;28;20039;-70
2022/11/11 01:12:22;;;;;;;6.53;2.97;;;;;;;0.44;100.00;96880.66;4986540;28;20610;-70
2022/11/11 01:14:48;;;;;;;7.22;3.53;;;;;;;0.44;100.00;96875.47;4985681;28;20054;-70
2022/11/11 01:17:13;;;;;;;7.35;3.25;;;;;;;0.45;100.00;96877.09;4990980;28;20065;-70
2022/11/11 01:19:39;;;;;;;5.88;2.97;;;;;;;0.44;100.00;96879.84;4998033;28;20470;-70
2022/11/11 01:22:04;;;;;;;4.93;2.67;;;;;;;0.41;100.00;96875.81;4999905;28;20049;-70
2022/11/11 01:24:30;;;;;;;5.65;2.88;;;;;;;0.41;100.00;96882.78;4974284;28;20047;-70
2022/11/11 01:26:55;;;;;;;8.20;2.67;;;;;;;0.32;100.00;96894.97;5009008;28;20065;-70
2022/11/11 01:29:21;;;;;;;6.03;2.90;;;;;;;0.33;100.00;96893.97;4999524;28;20381;-70
2022/11/11 01:31:46;;;;;;;7.53;3.40;;;;;;;0.32;100.00;96898.38;4980096;28;20050;-70
2022/11/11 01:34:12;;;;;;;4.80;2.70;;;;;;;0.19;100.00;96876.56;4984326;28;20047;-70
2022/11/11 01:36:37;;;;;;;5.00;2.85;;;;;;;0.15;100.00;96879.50;4978534;28;20062;-69
2022/11/11 01:39:03;;;;;;;5.82;2.70;;;;;;;0.17;100.00;96879.34;4981937;28;20042;-70
2022/11/11 01:41:35;;;;;;;5.07;3.17;;;;;;;0.11;100.00;96878.22;4989012;28;20046;-70
2022/11/11 01:44:01;;;;;;;5.40;2.90;;;;;;;0.13;100.00;96884.06;4964239;28;20069;-71
2022/11/11 01:46:34;;;;;;;8.88;3.10;;;;;;;0.23;100.00;96888.22;4997558;28;20070;-70
2022/11/11 01:49:18;;;;;;;4.95;2.72;;;;;;;0.17;100.00;96885.34;5007209;28;20569;-70
2022/11/11 01:52:04;;;;;;;5.53;3.00;;;;;;;0.11;100.00;96885.19;4983787;28;20055;-70
2022/11/11 01:54:41;;;;;;;6.95;2.90;;;;;;;0.06;100.00;96888.31;4979489;28;20046;-70
2022/11/11 01:57:19;;;;;;;4.82;2.80;;;;;;;0.07;100.00;96883.94;4993218;28;20132;-70
2022/11/11 01:59:49;;;;;;;4.78;2.97;;;;;;;0.07;100.00;96889.94;5008483;28;20045;-71
2022/11/11 02:02:20;;;;;;;4.53;2.67;;;;;;;0.08;100.00;96883.75;4987896;28;20528;-71
2022/11/11 02:07:34;;;;;;;5.50;3.33;;;;;;;0.01;100.00;96890.59;4995122;28;20500;-71
2022/11/11 02:10:01;;;;;;;8.13;2.72;;;;;;;-0.02;100.00;96888.34;4999704;28;20077;-71
2022/11/11 02:15:11;;;;;;;6.75;2.80;;;;;;;-0.13;100.00;96883.53;4973862;28;20038;-71
2022/11/11 02:17:38;;;;;;;5.40;2.60;;;;;;;-0.10;100.00;96883.19;4995449;28;20054;-70
2022/11/11 02:20:04;;;;;;;9.30;2.95;;;;;;;-0.12;100.00;96879.97;5001480;28;20074;-70
2022/11/11 02:22:56;;;;;;;7.05;2.90;;;;;;;-0.07;100.00;96888.00;4974884;28;20053;-70
2022/11/11 02:25:26;;;;;;;4.22;2.60;;;;;;;-0.09;100.00;96889.97;4988435;28;20089;-71
2022/11/11 02:27:56;;;;;;;5.03;2.70;;;;;;;-0.19;100.00;96885.81;4994626;28;20703;-70
2022/11/11 02:30:21;;;;;;;4.63;2.55;;;;;;;-0.31;100.00;96892.31;4993622;28;20075;-70
2022/11/11 02:32:49;;;;;;;7.63;2.72;;;;;;;-0.30;100.00;96888.75;4981818;28;20047;-71
2022/11/11 02:35:30;;;;;;;3.67;2.40;;;;;;;-0.29;100.00;96890.34;4976460;28;20051;-71
2022/11/11 02:37:56;;;;;;;4.35;2.47;;;;;;;-0.33;100.00;96889.09;4996452;28;20491;-71
2022/11/11 02:40:34;;;;;;;5.63;2.88;;;;;;;-0.37;100.00;96880.84;4993598;28;20092;-70
2022/11/11 02:43:00;;;;;;;6.32;2.88;;;;;;;-0.40;100.00;96882.97;4999448;28;20042;-71
2022/11/11 02:45:25;;;;;;;4.60;2.63;;;;;;;-0.30;100.00;96891.34;5002980;28;20096;-71
2022/11/11 02:47:50;;;;;;;4.20;2.45;;;;;;;-0.24;100.00;96892.47;4991688;28;20046;-71
2022/11/11 02:50:16;;;;;;;4.88;2.63;;;;;;;-0.32;100.00;96906.22;4992505;28;20564;-71
2022/11/11 02:52:42;;;;;;;4.75;2.65;;;;;;;-0.34;100.00;96897.81;4981932;28;20109;-71
2022/11/11 02:55:07;;;;;;;8.27;2.40;;;;;;;-0.42;100.00;96900.41;4986825;28;20479;-69
2022/11/11 02:57:34;;;;;;;4.95;2.70;;;;;;;-0.47;100.00;96900.13;4982556;28;20066;-71
2022/11/11 02:59:59;;;;;;;7.55;2.72;;;;;;;-0.37;100.00;96908.50;5003366;28;20045;-71
2022/11/11 03:02:26;;;;;;;4.47;2.50;;;;;;;-0.36;100.00;96910.09;4974476;28;20093;-70
2022/11/11 03:04:56;;;;;;;6.53;2.80;;;;;;;-0.42;100.00;96915.94;4976346;28;20602;-71
2022/11/11 03:07:22;;;;;;;4.80;2.78;;;;;;;-0.45;100.00;96921.44;4989876;28;20042;-71
2022/11/11 03:09:48;;;;;;;5.00;2.65;;;;;;;-0.51;100.00;96924.69;4987517;28;20133;-71
2022/11/11 03:12:15;;;;;;;4.10;2.38;;;;;;;-0.44;100.00;96933.41;4973733;28;20493;-72
2022/11/11 03:14:40;;;;;;;4.32;2.50;;;;;;;-0.46;100.00;96935.34;4983935;28;20483;-71
2022/11/11 03:19:50;;;;;;;4.65;2.33;;;;;;;-0.47;100.00;96944.09;4988607;28;20053;-70
2022/11/11 03:22:16;;;;;;;4.80;2.65;;;;;;;-0.49;100.00;96958.94;4978463;28;20070;-70
2022/11/11 03:27:25;;;;;;;5.35;2.90;;;;;;;-0.47;100.00;96975.13;5000029;28;20045;-71
2022/11/11 03:29:51;;;;;;;4.40;2.50;;;;;;;-0.47;100.00;96969.97;4997419;28;20035;-70
2022/11/11 03:32:16;;;;;;;6.13;2.58;;;;;;;-0.54;100.00;96969.78;4981138;28;20129;-71
2022/11/11 03:34:42;;;;;;;7.57;2.85;;;;;;;-0.57;100.00;96976.09;4982940;28;20057;-70
2022/11/11 03:39:53;;;;;;;4.05;2.55;;;;;;;-0.63;100.00;96981.91;4989142;28;20097;-70
2022/11/11 03:42:19;;;;;;;5.25;3.10;;;;;;;-0.66;100.00;96977.06;4984954;28;20457;-69
2022/11/11 03:44:45;;;;;;;5.22;2.80;;;;;;;-0.69;100.00;96972.22;4986900;28;20566;-71
2022/11/11 03:47:10;;;;;;;5.00;2.70;;;;;;;-0.64;100.00;96967.38;4991777;28;20042;-70
2022/11/11 03:49:36;;;;;;;5.05;2.70;;;;;;;-0.51;100.00;96969.47;4991738;28;20567;-69
2022/11/11 03:52:01;;;;;;;5.75;2.53;;;;;;;-0.68;100.00;96960.91;4972816;28;20523;-69
2022/11/11 03:54:27;;;;;;;4.45;2.50;;;;;;;-0.70;100.00;96960.28;4983857;28;20061;-70
2022/11/11 03:57:29;;;;;;;5.50;2.50;;;;;;;-0.72;100.00;96964.78;4974359;28;20043;-70
2022/11/11 03:59:38;;;;;;;4.05;2.38;;;;;;;-0.70;100.00;96968.03;4981066;28;20050;-70
2022/11/11 04:10:21;;;;;;;4.55;2.40;;;;;;;-0.67;100.00;96962.53;4986425;28;20130;-70
2022/11/11 04:18:15;;;;;;;4.17;2.33;;;;;;;-0.70;100.00;96961.06;4972127;28;20493;-70
2022/11/11 04:23:26;;;;;;;4.63;2.55;;;;;;;-0.70;100.00;96940.38;4995114;28;20077;-70
2022/11/11 04:25:54;;;;;;;6.50;2.45;;;;;;;-0.67;100.00;96935.88;4988511;28;20488;-70
2022/11/11 04:31:03;;;;;;;4.18;2.40;;;;;;;-0.53;100.00;96950.72;4975286;28;20085;-70
2022/11/11 04:33:29;;;;;;;6.55;2.67;;;;;;;-0.52;100.00;96936.81;4972449;28;20070;-70
2022/11/11 04:35:55;;;;;;;4.90;2.67;;;;;;;-0.43;100.00;96941.00;4975172;28;20065;-70
2022/11/11 04:41:05;;;;;;;7.72;2.78;;;;;;;-0.36;100.00;96934.22;4996736;28;20107;-70
2022/11/11 04:43:31;;;;;;;4.22;2.50;;;;;;;-0.29;100.00;96931.75;5003113;28;20534;-69
2022/11/11 04:45:58;;;;;;;4.22;2.30;;;;;;;-0.26;100.00;96923.69;4982081;28;20049;-72
2022/11/11 04:48:24;;;;;;;4.53;2.55;;;;;;;-0.27;100.00;96927.22;4997337;28;20045;-69
2022/11/11 04:50:49;;;;;;;3.35;2.10;;;;;;;-0.34;100.00;96928.88;4991548;28;20105;-69
2022/11/11 04:53:14;;;;;;;4.65;2.67;;;;;;;-0.42;100.00;96931.47;4984716;28;20105;-70
2022/11/11 04:58:32;;;;;;;3.95;2.50;;;;;;;-0.40;100.00;96937.28;4971913;28;20081;-69
2022/11/11 05:00:58;;;;;;;5.90;2.28;;;;;;;-0.48;100.00;96932.94;4987986;28;20049;-69
2022/11/11 05:03:24;;;;;;;3.90;2.15;;;;;;;-0.47;100.00;96937.13;4989090;28;20415;-69
2022/11/11 05:08:56;;;;;;;4.72;2.40;;;;;;;-0.45;100.00;96947.31;4978339;28;20087;-71
2022/11/11 05:11:27;;;;;;;3.22;1.98;;;;;;;-0.63;100.00;96945.72;4994899;28;20049;-72
2022/11/11 05:22:23;;;;;;;4.65;2.40;;;;;;;-0.60;100.00;96955.72;4993241;28;20510;-72
2022/11/11 05:27:34;;;;;;;3.83;2.20;;;;;;;-0.64;100.00;96954.44;4987255;28;20515;-72
2022/11/11 05:30:00;;;;;;;3.90;2.33;;;;;;;-0.67;100.00;96954.78;4990404;28;20046;-71
2022/11/11 05:32:25;;;;;;;4.53;2.38;;;;;;;-0.66;100.00;96961.56;4991172;28;20118;-71
2022/11/11 05:34:52;;;;;;;3.85;2.30;;;;;;;-0.66;100.00;96966.72;4990626;28;20500;-71
2022/11/11 05:37:17;;;;;;;6.45;2.50;;;;;;;-0.66;100.00;96964.16;4970604;28;20134;-71
2022/11/11 05:39:44;;;;;;;5.03;2.47;;;;;;;-0.71;100.00;96968.97;4974158;28;21281;-71
2022/11/11 05:42:09;;;;;;;4.47;2.40;;;;;;;-0.75;100.00;96967.69;4993603;28;20041;-72
2022/11/11 05:44:35;;;;;;;4.93;2.38;;;;;;;-0.74;100.00;96974.47;4986127;28;20035;-71
2022/11/11 05:47:01;;;;;;;4.45;2.50;;;;;;;-0.75;100.00;96968.50;4974953;28;20468;-71
2022/11/11 05:49:28;;;;;;;3.97;2.22;;;;;;;-0.75;100.00;96967.69;4976280;28;20050;-71
2022/11/11 05:51:54;;;;;;;4.95;2.53;;;;;;;-0.72;100.00;96975.13;5001431;28;20066;-71
2022/11/11 05:54:20;;;;;;;9.13;2.67;;;;;;;-0.65;100.00;96983.03;4972282;28;20574;-71
2022/11/11 05:56:45;;;;;;;6.85;2.88;;;;;;;-0.63;100.00;96991.44;4976895;28;20047;-71
2022/11/11 05:59:11;;;;;;;5.75;2.65;;;;;;;-0.66;100.00;97002.94;4977571;28;20100;-71
2022/11/11 06:01:37;;;;;;;3.40;2.08;;;;;;;-0.58;100.00;96999.53;4987605;28;20077;-70
2022/11/11 06:04:03;;;;;;;4.53;2.30;;;;;;;-0.65;100.00;96999.34;4985020;28;20432;-70
2022/11/11 06:06:29;;;;;;;5.35;2.67;;;;;;;-0.62;100.00;97009.38;4990109;28;20051;-67
2022/11/11 06:08:55;;;;;;;6.93;2.40;;;;;;;-0.69;100.00;97008.41;4987139;28;20503;-69
2022/11/11 06:11:21;;;;;;;7.15;2.50;;;;;;;-0.64;100.00;97003.56;4991264;28;20054;-68
2022/11/11 06:13:47;;;;;;;7.80;2.80;;;;;;;-0.70;100.00;97007.59;4999892;28;20681;-69
2022/11/11 06:16:13;;;;;;;7.07;3.30;;;;;;;-0.69;100.00;97008.41;4998319;28;20046;-67
2022/11/11 06:18:38;;;;;;;8.50;3.15;;;;;;;-0.61;100.00;97011.00;4985757;28;20057;-69
2022/11/11 06:21:04;;;;;;;6.03;3.15;;;;;;;-0.59;100.00;97022.00;4984581;28;20049;-67
2022/11/11 06:23:30;;;;;;;6.78;3.15;;;;;;;-0.55;100.00;97020.72;4977420;28;20066;-73
2022/11/11 06:26:14;;;;;;;5.15;2.70;;;;;;;-0.56;100.00;97024.25;4982221;28;20424;-68
2022/11/11 06:28:54;;;;;;;9.20;2.75;;;;;;;-0.64;100.00;97026.03;4988310;28;20555;-68
2022/11/11 06:31:22;;;;;;;9.60;2.90;;;;;;;-0.70;100.00;97024.91;4991561;28;20499;-68
2022/11/11 06:33:48;;;;;;;6.60;3.10;;;;;;;-0.62;100.00;97024.88;4986077;28;20029;-68
2022/11/11 06:36:15;;;;;;;12.02;3.40;;;;;;;-0.51;100.00;97025.56;5004622;28;20042;-68
2022/11/11 06:38:41;;;;;;;6.25;3.25;;;;;;;-0.46;100.00;97029.28;4980039;28;20050;-67
2022/11/11 06:41:09;;;;;;;5.50;2.70;;;;;;;-0.42;100.00;97034.91;4993787;28;20522;-68
2022/11/11 06:43:34;;;;;;;4.78;2.80;;;;;;;-0.32;100.00;97051.09;4983333;28;20043;-69
2022/11/11 06:46:00;;;;;;;6.53;2.90;;;;;;;-0.33;100.00;97054.66;4985177;28;20045;-68
2022/11/11 06:48:27;;;;;;;5.25;2.67;;;;;;;-0.35;100.00;97051.41;5005342;28;20038;-69
2022/11/11 06:50:59;;;;;;;5.78;2.85;;;;;;;-0.28;100.00;97054.16;4991519;28;20070;-72
2022/11/11 06:53:24;;;;;;;5.30;2.80;;;;;;;-0.24;100.00;97064.03;4991433;28;20039;-71
2022/11/11 06:55:51;;;;;;;5.45;2.80;;;;;;;-0.27;100.00;97064.34;4992070;28;20042;-68
2022/11/11 06:58:19;;;;;;;5.88;2.97;;;;;;;-0.18;100.00;97059.97;4991030;28;20124;-68
2022/11/11 07:00:46;;;;;;;8.43;3.05;;;;;;;-0.18;100.00;97058.19;4990948;28;20050;-69
2022/11/11 07:03:16;;;;;;;6.97;2.88;;;;;;;-0.09;100.00;97066.75;5000358;28;20066;-69
2022/11/11 07:05:43;;;;;;;6.90;3.38;;;;;;;0.03;100.00;97069.84;4991685;28;20424;-68
2022/11/11 07:08:12;;;;;;;7.28;2.90;;;;;;;0.19;100.00;97078.53;4991677;28;20527;-68
2022/11/11 07:10:42;;;;;;;5.53;2.70;;;;;;;0.20;100.00;97077.56;4994603;28;20039;-68
2022/11/11 07:13:08;;;;;;;8.25;3.00;;;;;;;0.19;100.00;97079.34;4987946;28;20054;-68
2022/11/11 07:15:34;;;;;;;7.82;2.95;;;;;;;0.27;100.00;97091.47;4994645;28;20042;-68
2022/11/11 07:18:00;;;;;;;6.47;2.78;;;;;;;0.32;100.00;97099.56;4992987;28;20077;-67
2022/11/11 07:20:26;;;;;;;6.28;2.70;;;;;;;0.43;100.00;97101.81;4971896;28;20113;-67
2022/11/11 07:22:51;;;;;;;7.90;3.13;;;;;;;0.48;100.00;97096.91;4982329;28;20039;-70
2022/11/11 07:25:17;;;;;;;4.13;2.42;;;;;;;0.68;100.00;97106.91;4982148;28;20128;-67
2022/11/11 07:27:43;;;;;;;6.13;2.78;;;;;;;0.69;100.00;97105.94;4985361;28;20042;-73
2022/11/11 07:30:10;;;;;;;5.47;2.95;;;;;;;0.76;100.00;97112.06;4983277;28;20042;-67
2022/11/11 07:32:36;;;;;;;6.20;3.17;;;;;;;0.85;100.00;97111.06;4990080;28;20034;-69
2022/11/11 07:35:02;;;;;;;9.85;3.22;;;;;;;0.91;100.00;97111.38;4992122;28;20065;-69
2022/11/11 07:37:29;;;;;;;7.03;3.60;;;;;;;0.99;100.00;97098.34;4994587;28;20050;-69
2022/11/11 07:39:55;;;;;;;8.20;3.22;;;;;;;1.18;100.00;97105.72;4981807;28;20093;-68
2022/11/11 07:42:20;;;;;;;7.15;3.17;;;;;;;1.35;100.00;97110.81;4994361;28;20039;-69
2022/11/11 07:44:46;;;;;;;5.05;2.58;;;;;;;1.47;100.00;97109.44;4972418;28;20046;-67
2022/11/11 07:47:11;;;;;;;7.00;3.40;;;;;;;1.60;100.00;97116.66;4980310;28;20496;-68
2022/11/11 07:49:37;;;;;;;7.72;3.67;;;;;;;1.73;100.00;97110.91;4992512;28;20057;-68
2022/11/11 07:52:02;;;;;;;6.40;3.00;;;;;;;1.84;100.00;97110.50;4991774;28;20129;-68
2022/11/11 07:54:28;;;;;;;9.63;3.67;;;;;;;2.01;100.00;97116.38;4994402;28;20689;-68
2022/11/11 07:56:53;;;;;;;7.88;3.95;;;;;;;2.17;100.00;97112.81;4996914;28;20046;-69
2022/11/11 07:59:19;;;;;;;8.05;3.70;;;;;;;2.39;100.00;97115.53;4992793;28;20074;-68
2022/11/11 08:01:45;;;;;;;12.88;4.47;;;;;;;2.54;100.00;97118.97;4990296;28;20060;-69
2022/11/11 08:04:10;;;;;;;12.85;4.25;;;;;;;2.68;100.00;97111.34;4980614;28;20061;-71
2022/11/11 08:06:36;;;;;;;8.10;3.80;;;;;;;2.81;100.00;97116.69;4996146;28;20108;-68
2022/11/11 08:09:02;;;;;;;10.25;4.55;;;;;;;3.06;100.00;97113.81;4986515;28;20047;-68
2022/11/11 08:14:12;;;;;;;11.18;5.55;;;;;;;3.27;100.00;97121.66;5001352;28;20092;-68
2022/11/11 08:16:37;;;;;;;15.73;5.57;;;;;;;3.32;100.00;97120.31;4983512;28;20725;-68
2022/11/11 08:19:03;;;;;;;21.67;7.35;;;;;;;3.35;100.00;97112.13;5001177;28;20038;-69
2022/11/11 08:21:28;;;;;;;16.70;5.30;;;;;;;3.44;100.00;97113.66;5003534;28;20045;-68
2022/11/11 08:23:54;;;;;;;12.45;4.97;;;;;;;3.40;100.00;97115.00;4980150;28;20061;-68
2022/11/11 08:26:21;;;;;;;11.40;4.85;;;;;;;3.66;100.00;97118.88;4999219;28;20026;-67
2022/11/11 08:28:47;;;;;;;10.07;5.30;;;;;;;3.73;100.00;97109.31;5010695;28;20062;-67
2022/11/11 08:31:12;;;;;;;10.05;5.18;;;;;;;3.83;100.00;97096.00;5012484;28;20022;-67
2022/11/11 08:33:38;;;;;;;11.38;4.18;;;;;;;3.97;100.00;97098.53;5013264;28;20049;-67
2022/11/11 08:36:05;;;;;;;9.38;4.68;;;;;;;3.88;100.00;97091.84;5008800;28;20123;-67
2022/11/11 08:38:30;;;;;;;10.05;4.47;;;;;;;3.75;100.00;97091.69;5001035;28;20031;-67
2022/11/11 08:41:00;;;;;;;11.65;4.68;;;;;;;3.87;100.00;97095.44;5018576;28;20025;-67
2022/11/11 08:43:26;;;;;;;8.00;4.50;;;;;;;4.03;100.00;97083.94;5012742;28;20039;-67
2022/11/11 08:45:52;;;;;;;10.75;4.53;;;;;;;3.99;100.00;97078.31;5011437;28;20057;-68
2022/11/11 08:48:18;;;;;;;10.02;4.85;;;;;;;4.07;100.00;97076.56;5001879;28;20089;-69
2022/11/11 08:50:44;;;;;;;10.55;5.00;;;;;;;4.14;100.00;97074.81;4985711;28;20411;-68
2022/11/11 08:53:10;;;;;;;8.77;4.57;;;;;;;4.15;100.00;97071.19;4987672;28;20134;-68
2022/11/11 08:55:36;;;;;;;9.45;4.40;;;;;;;4.28;100.00;97071.31;4988047;28;20499;-68
2022/11/11 08:58:06;;;;;;;8.60;4.82;;;;;;;4.51;100.00;97070.22;4990842;28;20046;-68
2022/11/11 09:00:32;;;;;;;7.68;4.20;;;;;;;4.60;100.00;97069.06;4990363;28;20039;-68
2022/11/11 09:03:03;;;;;;;11.27;4.57;;;;;;;4.91;100.00;97069.63;4971887;28;20381;-69
2022/11/11 09:05:29;;;;;;;10.57;4.40;;;;;;;4.92;100.00;97056.38;4974837;28;20402;-68
2022/11/11 09:07:54;;;;;;;13.65;4.18;;;;;;;5.12;100.00;97068.69;4971817;28;20058;-68
2022/11/11 09:10:20;;;;;;;9.23;3.90;;;;;;;5.28;100.00;97055.28;4986353;28;20066;-68
2022/11/11 09:12:46;;;;;;;10.25;4.30;;;;;;;5.55;100.00;97057.94;4979551;28;20066;-69
2022/11/11 09:15:11;;;;;;;9.43;4.05;;;;;;;5.72;100.00;97061.78;4971532;28;20275;-68
2022/11/11 09:17:37;;;;;;;8.82;3.88;;;;;;;5.86;100.00;97067.00;4990721;28;20523;-68
2022/11/11 09:20:03;;;;;;;6.63;3.72;;;;;;;6.09;100.00;97065.84;4990291;28;20046;-68
2022/11/11 09:22:28;;;;;;;7.75;3.83;;;;;;;6.35;100.00;97065.81;4971300;28;20708;-68
2022/11/11 09:24:55;;;;;;;13.35;3.85;;;;;;;6.40;100.00;97068.59;4984485;28;20042;-68
2022/11/11 09:27:20;;;;;;;6.55;3.33;;;;;;;6.59;100.00;97066.16;4970682;28;20589;-68
2022/11/11 09:29:46;;;;;;;5.38;3.00;;;;;;;6.89;100.00;97066.47;4990976;28;20070;-69
2022/11/11 09:32:11;;;;;;;6.07;2.72;;;;;;;7.13;100.00;97071.22;4980173;28;20054;-79
2022/11/11 09:34:37;;;;;;;7.35;3.10;;;;;;;7.69;100.00;97060.00;4987035;28;20046;-69
2022/11/11 09:37:02;;;;;;;5.72;3.03;;;;;;;7.83;100.00;97065.97;4989778;28;20050;-67
2022/11/11 09:39:28;;;;;;;7.30;3.13;;;;;;;8.25;100.00;97074.09;4987336;28;20139;-69
2022/11/11 09:41:58;;;;;;;7.28;3.50;;;;;;;8.60;100.00;97070.94;4977550;28;20058;-68
2022/11/11 09:44:32;;;;;;;6.75;3.53;;;;;;;8.84;100.00;97071.09;4975977;28;20089;-70
2022/11/11 09:47:14;;;;;;;6.72;3.30;;;;;;;9.10;100.00;97069.97;4989763;28;20042;-68
2022/11/11 09:49:58;;;;;;;11.73;3.15;;;;;;;9.30;100.00;97068.94;4979622;28;20054;-68
2022/11/11 09:52:36;;;;;;;7.20;3.00;;;;;;;9.82;100.00;97061.31;4985178;28;20042;-67
2022/11/11 09:55:11;;;;;;;7.22;2.92;;;;;;;10.51;100.00;97068.69;4983726;28;20146;-68
2022/11/11 09:57:42;;;;;;;11.23;3.20;;;;;;;9.96;100.00;97063.75;4990530;28;20124;-68
2022/11/11 10:00:21;;;;;;;10.05;3.38;;;;;;;9.88;100.00;97064.88;4984628;28;20051;-68
2022/11/11 10:02:53;;;;;;;10.02;4.47;;;;;;;9.83;100.00;97062.91;4986264;28;20073;-68
2022/11/11 10:05:21;;;;;;;8.02;3.10;;;;;;;9.93;100.00;97066.81;4978715;28;20475;-68
2022/11/11 10:07:58;;;;;;;7.95;3.33;;;;;;;9.81;100.00;97064.97;4987964;28;20046;-68
2022/11/11 10:10:41;;;;;;;6.72;3.13;;;;;;;10.49;100.00;97065.50;4982917;28;20556;-68
2022/11/11 10:13:13;;;;;;;5.97;2.70;;;;;;;10.70;100.00;97071.19;4978702;28;20061;-68
2022/11/11 10:15:54;;;;;;;5.80;2.70;;;;;;;10.96;100.00;97077.00;4968434;28;20058;-68
2022/11/11 10:19:01;;;;;;;4.40;2.65;;;;;;;10.99;100.00;97073.88;4997108;28;20049;-68
2022/11/11 10:21:43;;;;;;;7.70;3.10;;;;;;;11.57;100.00;97070.22;4988898;28;20055;-68
2022/11/11 10:24:27;;;;;;;7.95;2.60;;;;;;;11.89;100.00;97061.78;4987332;28;20050;-69
2022/11/11 10:26:53;;;;;;;4.60;2.25;;;;;;;12.73;100.00;97054.03;4993246;28;20618;-69
2022/11/11 10:29:20;;;;;;;8.07;2.75;;;;;;;13.14;100.00;97043.97;4977163;28;20051;-68
2022/11/11 10:32:09;;;;;;;3.75;2.45;;;;;;;13.71;100.00;97052.50;4981982;28;20050;-68
2022/11/11 10:34:36;;;;;;;8.13;3.28;;;;;;;13.76;100.00;97049.88;4979833;28;20050;-68
2022/11/11 10:37:02;;;;;;;7.50;3.15;;;;;;;14.33;100.00;97043.94;4974753;28;20628;-69
2022/11/11 10:39:55;;;;;;;6.00;2.70;;;;;;;12.92;100.00;97051.91;5008853;28;20569;-68
2022/11/11 10:42:21;;;;;;;8.55;2.80;;;;;;;13.13;100.00;97050.28;4987125;28;20113;-69
2022/11/11 10:44:46;;;;;;;10.50;3.40;;;;;;;13.26;100.00;97052.56;4991791;28;20409;-71
2022/11/11 10:47:42;;;;;;;7.55;3.08;;;;;;;13.79;100.00;97049.38;4991914;28;20060;-69
2022/11/11 10:50:17;;;;;;;11.02;2.78;;;;;;;13.90;100.00;97045.75;4986307;28;20053;-66
2022/11/11 10:52:50;;;;;;;6.93;3.08;;;;;;;15.03;99.89;97045.66;4987554;28;20097;-67
2022/11/11 10:55:29;;;;;;;5.25;2.88;;;;;;;14.97;100.00;97044.84;4976985;28;20413;-67
2022/11/11 10:58:10;;;;;;;5.55;3.15;;;;;;;15.22;89.74;97038.03;4980798;28;20507;-67
2022/11/11 11:00:37;;;;;;;12.80;3.05;;;;;;;14.40;89.82;97037.66;4984954;28;20066;-68
2022/11/11 11:03:18;;;;;;;4.50;2.80;;;;;;;14.40;90.55;97043.72;4990438;28;20058;-67
2022/11/11 11:05:52;;;;;;;8.02;2.80;;;;;;;15.27;100.00;97051.31;4984819;28;20069;-68
2022/11/11 11:08:21;;;;;;;9.38;2.95;;;;;;;15.60;94.38;97054.53;4990172;28;20492;-67
2022/11/11 11:10:54;;;;;;;7.68;3.20;;;;;;;15.89;94.01;97062.81;4995452;28;20042;-68
2022/11/11 11:13:35;;;;;;;3.72;2.42;;;;;;;16.67;77.08;97050.22;4990697;28;20038;-68
2022/11/11 11:16:07;;;;;;;8.02;2.78;;;;;;;16.27;75.08;97057.22;4990212;28;20049;-67
2022/11/11 11:18:33;;;;;;;9.30;4.10;;;;;;;17.67;73.94;97055.63;4992629;28;20050;-68
2022/11/11 11:21:01;;;;;;;5.80;3.50;;;;;;;15.95;82.76;97055.66;4997382;28;20061;-67
2022/11/11 11:23:36;;;;;;;5.50;3.03;;;;;;;15.89;78.29;97056.72;4977025;28;20137;-70
2022/11/11 11:26:03;;;;;;;8.65;3.50;;;;;;;16.20;74.48;97052.19;4990865;28;20050;-68
2022/11/11 11:28:29;;;;;;;9.63;4.22;;;;;;;16.49;77.40;97053.47;4996882;28;20050;-67
2022/11/11 11:31:05;;;;;;;7.28;3.30;;;;;;;17.97;72.57;97048.50;4979381;28;20452;-67
2022/11/11 11:33:54;;;;;;;7.15;3.50;;;;;;;18.12;64.52;97043.03;4993180;28;20038;-69
2022/11/11 11:36:20;;;;;;;11.82;3.83;;;;;;;18.35;57.90;97044.16;4990626;28;20049;-68
2022/11/11 11:38:51;;;;;;;8.40;3.20;;;;;;;18.38;59.24;97040.16;4993185;28;20058;-68
2022/11/11 11:41:34;;;;;;;6.70;3.13;;;;;;;17.27;62.92;97041.50;4994828;28;20058;-69
2022/11/11 11:44:00;;;;;;;6.60;3.30;;;;;;;16.85;60.47;97037.41;5004383;28;20030;-69
2022/11/11 11:46:42;;;;;;;8.20;3.70;;;;;;;17.93;63.75;97036.81;4991483;28;20046;-68
2022/11/11 11:49:36;;;;;;;8.45;3.65;;;;;;;17.72;62.04;97026.31;4984198;28;20038;-67
2022/11/11 11:52:19;;;;;;;6.85;3.10;;;;;;;17.14;63.97;97017.09;4989642;28;20051;-68
2022/11/11 11:55:01;;;;;;;7.38;3.38;;;;;;;16.75;70.91;97031.06;4990439;28;20050;-69
2022/11/11 11:57:43;;;;;;;7.88;3.20;;;;;;;16.90;70.21;97018.81;4989719;28;20460;-67
2022/11/11 12:00:20;;;;;;;6.57;3.58;;;;;;;16.17;66.67;97009.44;5001132;28;20049;-67
2022/11/11 12:03:18;;;;;;;7.75;3.40;;;;;;;15.72;76.30;97025.09;4991018;28;20496;-68
2022/11/11 12:06:09;;;;;;;6.75;3.35;;;;;;;15.04;68.12;97015.41;4990273;28;20066;-67
2022/11/11 12:08:55;;;;;;;6.63;3.00;;;;;;;15.24;72.36;97009.38;4985121;28;20104;-68
2022/11/11 12:11:56;;;;;;;7.38;3.08;;;;;;;15.63;86.43;97010.75;4977935;28;20050;-68
2022/11/11 12:14:54;;;;;;;7.13;3.05;;;;;;;15.42;84.06;97011.53;4966845;28;20122;-74
2022/11/11 12:17:27;;;;;;;8.00;3.10;;;;;;;16.20;73.14;97020.31;4999070;28;20057;-69
2022/11/11 12:20:12;;;;;;;6.00;2.97;;;;;;;15.92;76.13;97025.13;4993967;28;20049;-70
2022/11/11 12:22:43;;;;;;;;;;;;;;;16.22;70.58;97033.31;4997024;28;20050;-69
2022/11/11 12:25:38;;;;;;;8.48;3.58;;;;;;;15.99;73.98;97030.16;4991024;28;20390;-71
2022/11/11 12:28:34;;;;;;;9.40;3.28;;;;;;;15.90;74.92;97023.78;4998296;28;20070;-70
2022/11/11 12:31:27;;;;;;;9.57;3.08;;;;;;;14.29;83.34;97010.28;4991106;28;20063;-68
2022/11/11 12:34:01;;;;;;;5.28;2.80;;;;;;;14.19;81.10;97000.44;4986872;28;20089;-68
2022/11/11 12:36:45;;;;;;;9.35;3.13;;;;;;;14.48;87.85;96997.41;4988520;28;20030;-68
2022/11/11 12:39:30;;;;;;;;;;;;;;;14.14;89.03;97003.06;4985176;28;20121;-68
2022/11/11 12:42:25;;;;;;;6.30;2.65;;;;;;;13.98;90.66;97005.59;4990732;28;20431;-69
2022/11/11 12:44:53;;;;;;;6.45;2.90;;;;;;;13.70;89.59;97006.72;4987670;28;20053;-69
2022/11/11 12:47:27;;;;;;;4.85;2.80;;;;;;;13.24;95.23;96999.13;4988346;28;20057;-70
2022/11/11 12:50:10;;;;;;;7.67;3.57;;;;;;;13.51;92.70;97001.00;4988714;28;20654;-70
2022/11/11 12:53:10;;;;;;;6.63;3.25;;;;;;;12.74;96.60;97002.81;5002968;28;20088;-69
2022/11/11 12:56:17;;;;;;;8.20;3.47;;;;;;;12.82;99.57;96994.47;4989778;28;20042;-70